Time;durP1;ratioP1;P1;durP2;ratioP2;P2;SDS_P1;SDS_P2;PMS_P1;PMS_P2;Temp;Humidity;BMP_temperature;BMP_pressure;BME280_temperature;BME280_humidity;BME280_pressure;Samples;Min_cycle;Max_cycle;Signal;HPM_P1;HPM_P2
2021/12/27 00:01:12;;;;;;;339.48;128.20;;;;;;;-14.56;62.18;96998.87;1719162;82;25902;-82
2021/12/27 00:03:40;;;;;;;340.20;123.82;;;;;;;-14.58;62.31;97001.98;1719002;82;25690;-81
2021/12/27 00:06:10;;;;;;;323.15;116.95;;;;;;;-14.59;62.24;96993.82;1719042;82;26530;-82
2021/12/27 00:08:39;;;;;;;301.88;110.40;;;;;;;-14.64;62.28;96998.38;1718901;83;25743;-82
2021/12/27 00:11:04;;;;;;;286.62;104.43;;;;;;;-14.63;62.30;96993.59;1718905;82;26864;-82
2021/12/27 00:13:31;;;;;;;280.20;100.62;;;;;;;-14.66;62.33;96995.86;1718813;82;25721;-82
2021/12/27 00:15:57;;;;;;;280.20;104.92;;;;;;;-14.64;62.38;96998.38;1719199;82;25773;-81
2021/12/27 00:18:24;;;;;;;289.35;105.70;;;;;;;-14.66;62.42;96995.02;1719125;82;26252;-81
2021/12/27 00:20:50;;;;;;;384.10;127.92;;;;;;;-14.66;62.45;96997.61;1719147;82;25674;-81
2021/12/27 00:23:17;;;;;;;314.95;114.22;;;;;;;-14.59;62.66;96992.52;1719107;82;27447;-82
2021/12/27 00:25:43;;;;;;;316.57;112.77;;;;;;;-14.47;62.73;96989.83;1717056;82;25804;-81
2021/12/27 00:28:10;;;;;;;307.75;113.47;;;;;;;-14.40;62.73;96992.09;1708802;82;25742;-82
2021/12/27 00:30:38;;;;;;;293.50;112.70;;;;;;;-14.37;62.49;96986.75;1708796;82;25762;-82
2021/12/27 00:33:05;;;;;;;272.98;108.10;;;;;;;-14.44;62.44;96987.95;1708780;83;25818;-82
2021/12/27 00:35:32;;;;;;;291.93;111.35;;;;;;;-14.53;62.54;96989.67;1708671;82;28180;-82
2021/12/27 00:37:59;;;;;;;289.15;108.55;;;;;;;-14.57;62.49;96984.23;1708636;82;25818;-82
2021/12/27 00:40:26;;;;;;;284.32;110.95;;;;;;;-14.60;62.49;96990.38;1708755;82;25791;-82
2021/12/27 00:42:53;;;;;;;287.52;113.65;;;;;;;-14.66;62.37;96989.83;1708685;82;25761;-82
2021/12/27 00:45:20;;;;;;;295.95;110.35;;;;;;;-14.67;62.46;96988.15;1708745;82;25900;-82
2021/12/27 00:47:49;;;;;;;317.57;119.05;;;;;;;-14.69;62.46;96989.96;1708702;83;27440;-82
2021/12/27 00:50:15;;;;;;;308.70;112.47;;;;;;;-14.78;62.49;96981.31;1708629;82;25745;-82
2021/12/27 00:52:42;;;;;;;314.50;114.12;;;;;;;-14.72;62.60;96987.50;1708753;82;25789;-82
2021/12/27 00:55:12;;;;;;;315.00;114.00;;;;;;;-14.72;62.55;96980.56;1708456;83;26520;-83
2021/12/27 00:57:39;;;;;;;310.15;113.03;;;;;;;-14.72;62.58;96979.27;1708634;82;25695;-83
2021/12/27 01:00:11;;;;;;;310.80;112.12;;;;;;;-14.73;62.57;96975.48;1708749;82;27626;-83
2021/12/27 01:02:38;;;;;;;297.98;108.72;;;;;;;-14.77;62.45;96977.81;1708632;82;25901;-83
2021/12/27 01:05:06;;;;;;;304.70;111.95;;;;;;;-14.79;62.50;96970.56;1708693;82;26323;-84
2021/12/27 01:07:33;;;;;;;308.40;113.35;;;;;;;-14.71;62.76;96968.45;1708637;82;25778;-83
2021/12/27 01:11:12;;;;;;;303.12;110.40;;;;;;;-14.59;62.72;96965.31;1708790;82;26504;-83
2021/12/27 01:12:51;;;;;;;276.90;98.47;;;;;;;-14.55;62.71;96964.73;1698586;82;27386;-83
2021/12/27 01:17:47;;;;;;;279.77;103.95;;;;;;;-14.52;62.60;96966.73;1708692;82;25839;-83
2021/12/27 01:20:19;;;;;;;272.48;101.22;;;;;;;-14.51;62.60;96961.09;1708677;82;25847;-83
2021/12/27 01:22:45;;;;;;;;;;;;;;;-14.54;62.53;96957.34;1711284;83;25268;-83
2021/12/27 01:25:13;;;;;;;245.55;83.10;;;;;;;-14.58;62.57;96963.11;1708702;82;28410;-82
2021/12/27 01:27:42;;;;;;;239.50;82.25;;;;;;;-14.61;62.54;96956.80;1708290;82;25766;-82
2021/12/27 01:30:15;;;;;;;263.50;85.32;;;;;;;-14.70;62.52;96953.30;1708721;83;25794;-83
2021/12/27 01:32:47;;;;;;;242.37;82.70;;;;;;;-14.67;62.70;96952.72;1708636;83;25771;-85
2021/12/27 01:35:10;;;;;;;262.15;85.62;;;;;;;-14.55;62.84;96953.91;1707933;82;25926;-83
2021/12/27 01:37:36;;;;;;;210.70;72.72;;;;;;;-14.52;62.75;96955.07;1708733;82;26891;-83
2021/12/27 01:40:05;;;;;;;300.38;81.67;;;;;;;-14.56;62.66;96958.70;1708684;83;25841;-83
2021/12/27 01:42:32;;;;;;;229.75;72.82;;;;;;;-14.55;62.77;96955.66;1708716;83;25769;-83
2021/12/27 01:44:58;;;;;;;257.75;74.75;;;;;;;-14.45;62.87;96957.75;1708707;82;25669;-84
2021/12/27 01:47:27;;;;;;;204.18;67.85;;;;;;;-14.36;62.96;96950.81;1708690;82;25751;-84
2021/12/27 01:49:53;;;;;;;189.18;63.08;;;;;;;-14.23;62.77;96953.67;1708607;82;27481;-83
2021/12/27 01:52:20;;;;;;;163.40;59.75;;;;;;;-14.27;62.64;96956.05;1708712;83;25664;-83
2021/12/27 01:54:46;;;;;;;164.67;61.23;;;;;;;-14.29;62.73;96949.63;1708441;82;25719;-83
2021/12/27 01:57:13;;;;;;;172.57;61.77;;;;;;;-14.22;62.84;96944.53;1708693;82;25839;-83
2021/12/27 01:59:40;;;;;;;182.85;64.62;;;;;;;-14.10;62.88;96944.86;1708774;82;25671;-83
2021/12/27 02:02:06;;;;;;;185.43;62.78;;;;;;;-14.03;62.84;96947.56;1708704;82;27523;-83
2021/12/27 02:04:33;;;;;;;172.87;62.53;;;;;;;-14.08;62.66;96945.63;1708581;82;25750;-82
2021/12/27 02:06:59;;;;;;;159.43;61.25;;;;;;;-14.15;62.52;96941.66;1708685;82;25761;-83
2021/12/27 02:09:37;;;;;;;180.32;66.80;;;;;;;-14.16;62.54;96943.41;1708717;83;26625;-83
2021/12/27 02:11:54;;;;;;;179.10;64.35;;;;;;;-14.25;62.54;96940.77;1706970;82;25734;-83
2021/12/27 02:14:21;;;;;;;167.03;64.45;;;;;;;-14.22;62.60;96941.09;1708677;82;27992;-83
2021/12/27 02:16:48;;;;;;;167.32;61.58;;;;;;;-14.23;62.63;96933.77;1708589;82;25730;-83
2021/12/27 02:19:14;;;;;;;167.35;60.75;;;;;;;-14.21;62.57;96933.25;1708869;82;25766;-83
2021/12/27 02:21:41;;;;;;;154.70;59.63;;;;;;;-14.24;62.53;96932.55;1708699;82;25780;-83
2021/12/27 02:24:08;;;;;;;147.45;56.35;;;;;;;-14.27;62.57;96927.07;1708696;82;25718;-83
2021/12/27 02:26:35;;;;;;;158.25;60.55;;;;;;;-14.28;62.62;96918.91;1707182;82;27241;-83
2021/12/27 02:29:02;;;;;;;164.05;59.65;;;;;;;-14.35;62.53;96913.61;1703007;83;25695;-83
2021/12/27 02:31:29;;;;;;;162.80;59.05;;;;;;;-14.37;62.49;96912.02;1703316;84;25759;-83
2021/12/27 02:33:56;;;;;;;157.10;58.92;;;;;;;-14.38;62.53;96909.05;1703300;82;25719;-83
2021/12/27 02:36:24;;;;;;;167.03;64.55;;;;;;;-14.31;62.67;96901.35;1703302;82;25892;-83
2021/12/27 02:38:51;;;;;;;156.87;57.62;;;;;;;-14.32;62.51;96899.21;1712326;81;27577;-83
2021/12/27 02:41:17;;;;;;;154.53;56.85;;;;;;;-14.39;62.45;96900.42;1732609;81;25775;-83
2021/12/27 02:43:44;;;;;;;164.15;59.83;;;;;;;-14.36;62.56;96905.44;1732754;81;25670;-83
2021/12/27 02:46:14;;;;;;;166.95;58.23;;;;;;;-14.39;62.65;96906.91;1741307;81;26609;-83
2021/12/27 02:48:47;;;;;;;162.65;55.80;;;;;;;-14.33;62.81;96907.06;1740958;81;25244;-83
2021/12/27 02:51:17;;;;;;;176.70;60.58;;;;;;;-14.27;62.83;96905.03;1741480;82;27401;-83
2021/12/27 02:53:46;;;;;;;177.47;61.83;;;;;;;-14.16;62.80;96910.16;1741196;82;25786;-83
2021/12/27 02:56:13;;;;;;;217.68;68.47;;;;;;;-14.16;62.69;96909.70;1741316;82;26374;-83
2021/12/27 02:58:39;;;;;;;204.75;67.25;;;;;;;-14.10;62.80;96902.91;1740972;81;25666;-83
2021/12/27 03:01:14;;;;;;;154.07;54.20;;;;;;;-13.99;62.94;96895.91;1723824;82;25716;-83
2021/12/27 03:03:41;;;;;;;148.15;55.17;;;;;;;-13.87;62.84;96892.70;1763105;80;27590;-83
2021/12/27 03:06:09;;;;;;;155.10;57.05;;;;;;;-13.89;62.70;96891.97;1762934;80;25676;-83
2021/12/27 03:08:37;;;;;;;154.18;56.48;;;;;;;-13.89;62.72;96897.16;1763134;81;26237;-83
2021/12/27 03:11:05;;;;;;;148.95;55.70;;;;;;;-13.85;62.82;96890.88;1763133;80;25769;-83
2021/12/27 03:13:36;;;;;;;132.50;49.50;;;;;;;-13.88;62.75;96888.44;1763224;80;26397;-83
2021/12/27 03:16:07;;;;;;;128.55;48.63;;;;;;;-13.91;62.75;96886.85;1763139;80;27576;-83
2021/12/27 03:18:40;;;;;;;115.08;46.55;;;;;;;-13.86;62.73;96893.93;1763216;80;25679;-83
2021/12/27 03:21:09;;;;;;;121.82;46.13;;;;;;;-13.84;62.65;96892.56;1762336;80;25738;-83
2021/12/27 03:23:37;;;;;;;114.67;45.10;;;;;;;-13.92;62.50;96896.00;1763147;81;25810;-82
2021/12/27 03:26:05;;;;;;;115.55;44.77;;;;;;;-13.99;62.49;96901.09;1763105;80;25729;-83
2021/12/27 03:28:33;;;;;;;106.97;43.38;;;;;;;-14.02;62.62;96891.73;1772699;80;27345;-83
2021/12/27 03:31:01;;;;;;;116.70;44.93;;;;;;;-13.85;62.76;96893.02;1773744;80;26367;-83
2021/12/27 03:33:28;;;;;;;108.50;44.35;;;;;;;-13.79;62.65;96899.67;1774053;80;25787;-83
2021/12/27 03:36:02;;;;;;;110.22;44.38;;;;;;;-13.88;62.57;96891.87;1774043;80;25844;-83
2021/12/27 03:38:33;;;;;;;113.57;45.83;;;;;;;-13.98;62.45;96885.45;1774058;80;25729;-82
2021/12/27 03:41:00;;;;;;;;;;;;;;;-14.01;62.60;96879.14;1776433;80;27518;-83
2021/12/27 03:43:26;;;;;;;147.45;56.70;;;;;;;-14.04;62.49;96888.82;1773958;80;25796;-82
2021/12/27 03:45:53;;;;;;;126.85;47.67;;;;;;;-14.17;62.56;96887.73;1773960;80;25730;-83
2021/12/27 03:48:20;;;;;;;148.87;53.15;;;;;;;-14.13;62.70;96883.63;1774036;80;25890;-83
2021/12/27 03:50:46;;;;;;;123.85;46.50;;;;;;;-14.06;62.83;96879.81;1774092;80;25999;-83
2021/12/27 03:53:13;;;;;;;133.25;47.45;;;;;;;-14.01;62.89;96885.63;1773941;80;27499;-83
2021/12/27 03:55:39;;;;;;;146.15;51.00;;;;;;;-13.93;63.04;96891.27;1773966;80;25718;-83
2021/12/27 03:58:09;;;;;;;130.63;48.87;;;;;;;-13.98;62.75;96889.34;1773594;80;25785;-83
2021/12/27 04:01:00;;;;;;;149.05;52.27;;;;;;;-14.05;62.65;96892.33;1774065;80;25658;-83
2021/12/27 04:03:17;;;;;;;145.05;56.85;;;;;;;-14.09;62.83;96882.55;1772365;80;25756;-83
2021/12/27 04:05:45;;;;;;;179.18;66.50;;;;;;;-13.95;63.09;96884.47;1774010;80;27519;-83
2021/12/27 04:08:13;;;;;;;187.95;70.28;;;;;;;-13.85;62.99;96885.70;1773858;80;25727;-82
2021/12/27 04:10:42;;;;;;;183.90;71.15;;;;;;;-13.85;62.94;96883.09;1774021;80;25662;-82
2021/12/27 04:13:11;;;;;;;171.32;68.47;;;;;;;-13.80;62.96;96886.32;1774002;80;25782;-82
2021/12/27 04:15:39;;;;;;;163.05;67.82;;;;;;;-13.82;62.83;96886.84;1774046;80;25737;-82
2021/12/27 04:18:09;;;;;;;176.05;68.37;;;;;;;-13.86;62.72;96887.45;1773973;80;27533;-82
2021/12/27 04:20:36;;;;;;;175.20;71.60;;;;;;;-13.89;62.83;96882.44;1773984;80;25632;-82
2021/12/27 04:23:02;;;;;;;173.60;68.37;;;;;;;-13.79;63.00;96875.48;1773963;80;25707;-83
2021/12/27 04:25:29;;;;;;;186.77;71.97;;;;;;;-13.82;62.79;96885.55;1773963;80;26473;-82
2021/12/27 04:27:55;;;;;;;163.15;65.85;;;;;;;-13.88;62.83;96889.73;1773820;80;26119;-82
2021/12/27 04:30:22;;;;;;;184.93;70.87;;;;;;;-13.82;62.98;96885.55;1774063;80;27409;-83
2021/12/27 04:32:50;;;;;;;210.75;75.67;;;;;;;-13.81;62.94;96876.85;1773923;80;25690;-82
2021/12/27 04:35:19;;;;;;;159.82;61.80;;;;;;;-13.75;62.96;96876.53;1773994;80;25777;-83
2021/12/27 04:37:48;;;;;;;153.47;61.77;;;;;;;-13.72;62.88;96876.39;1774039;80;26652;-82
2021/12/27 04:40:17;;;;;;;143.30;57.58;;;;;;;-13.74;62.78;96873.48;1773984;80;25730;-81
2021/12/27 04:42:49;;;;;;;144.07;56.95;;;;;;;-13.87;62.72;96878.44;1774010;80;27531;-83
2021/12/27 04:45:17;;;;;;;155.57;58.70;;;;;;;-13.93;62.72;96873.11;1773964;80;25976;-82
2021/12/27 04:47:44;;;;;;;156.93;58.58;;;;;;;-14.01;62.73;96865.34;1773963;80;25768;-83
2021/12/27 04:50:13;;;;;;;153.47;61.00;;;;;;;-14.08;62.81;96871.27;1773964;80;25774;-82
2021/12/27 04:52:41;;;;;;;148.68;55.48;;;;;;;-14.02;63.00;96870.14;1774015;80;25776;-82
2021/12/27 04:55:08;;;;;;;151.47;56.90;;;;;;;-13.96;62.95;96877.60;1773957;80;28053;-82
2021/12/27 04:57:35;;;;;;;163.12;60.12;;;;;;;-13.98;63.00;96876.83;1773650;80;25720;-82
2021/12/27 05:00:06;;;;;;;161.77;57.70;;;;;;;-13.93;63.06;96887.84;1773767;80;25704;-84
2021/12/27 05:02:33;;;;;;;162.12;61.60;;;;;;;-13.92;63.04;96885.63;1774015;80;25662;-82
2021/12/27 05:04:59;;;;;;;185.60;63.83;;;;;;;-13.87;63.09;96895.30;1773957;80;25730;-82
2021/12/27 05:07:26;;;;;;;168.20;62.85;;;;;;;-13.85;63.21;96902.56;1787052;78;27525;-81
2021/12/27 05:09:52;;;;;;;265.10;84.97;;;;;;;-13.82;63.14;96902.41;1786991;80;25799;-82
2021/12/27 05:12:19;;;;;;;426.13;140.45;;;;;;;-13.82;63.13;96904.17;1787185;79;25791;-82
2021/12/27 05:14:45;;;;;;;359.83;118.80;;;;;;;-13.72;63.19;96890.66;1787094;80;26617;-82
2021/12/27 05:17:12;;;;;;;255.07;86.57;;;;;;;-13.71;63.11;96881.96;1787252;79;25801;-82
2021/12/27 05:19:39;;;;;;;180.37;63.70;;;;;;;-13.74;63.07;96876.91;1787136;79;27496;-82
2021/12/27 05:22:05;;;;;;;198.82;69.95;;;;;;;-13.72;63.12;96873.80;1787089;79;25684;-82
2021/12/27 05:24:32;;;;;;;215.77;74.58;;;;;;;-13.66;63.17;96876.09;1787246;79;25761;-82
2021/12/27 05:26:58;;;;;;;241.55;80.90;;;;;;;-13.58;63.11;96879.13;1787113;79;25811;-82
2021/12/27 05:29:28;;;;;;;241.00;84.07;;;;;;;-13.50;63.04;96881.33;1781123;79;25761;-84
2021/12/27 05:31:58;;;;;;;258.87;89.75;;;;;;;-13.54;63.01;96875.94;1781334;80;27399;-82
2021/12/27 05:34:23;;;;;;;260.17;86.25;;;;;;;-13.62;62.93;96875.45;1781384;79;25806;-82
2021/12/27 05:36:49;;;;;;;245.05;86.05;;;;;;;-13.69;62.88;96867.16;1781449;79;25730;-82
2021/12/27 05:39:22;;;;;;;205.72;72.80;;;;;;;-13.78;62.84;96871.98;1781395;79;25629;-82
2021/12/27 05:41:49;;;;;;;205.18;78.50;;;;;;;-13.86;62.95;96873.63;1789800;79;25704;-82
2021/12/27 05:44:17;;;;;;;243.82;86.30;;;;;;;-13.90;63.04;96878.16;1794690;79;27509;-82
2021/12/27 05:46:44;;;;;;;210.28;79.35;;;;;;;-13.98;63.08;96884.61;1794509;79;25703;-83
2021/12/27 05:49:10;;;;;;;260.50;87.53;;;;;;;-13.87;63.39;96884.47;1794694;79;25785;-82
2021/12/27 05:51:37;;;;;;;205.95;73.70;;;;;;;-13.73;63.41;96879.89;1794660;79;25792;-82
2021/12/27 05:54:04;;;;;;;325.55;112.12;;;;;;;-13.67;63.34;96877.02;1794928;79;25325;-82
2021/12/27 05:56:33;;;;;;;237.57;83.70;;;;;;;-13.61;63.38;96874.55;1794630;79;27439;-82
2021/12/27 05:58:59;;;;;;;206.43;80.92;;;;;;;-13.49;63.41;96870.88;1794527;79;25775;-82
2021/12/27 06:01:26;;;;;;;204.38;79.20;;;;;;;-13.40;63.18;96870.85;1794680;79;25713;-82
2021/12/27 06:03:55;;;;;;;210.00;86.42;;;;;;;-13.52;62.89;96865.83;1794761;79;26690;-82
2021/12/27 06:06:21;;;;;;;211.87;85.70;;;;;;;-13.56;63.05;96869.52;1794706;79;25246;-82
2021/12/27 06:08:47;;;;;;;223.57;87.37;;;;;;;-13.54;63.13;96872.88;1794637;79;27429;-82
2021/12/27 06:11:14;;;;;;;254.05;94.37;;;;;;;-13.53;63.13;96874.56;1794531;79;25773;-82
2021/12/27 06:13:41;;;;;;;271.20;99.30;;;;;;;-13.60;63.08;96877.06;1794679;79;25766;-82
2021/12/27 06:16:07;;;;;;;284.07;97.55;;;;;;;-13.68;63.04;96881.81;1794663;79;25885;-82
2021/12/27 06:18:34;;;;;;;278.10;93.62;;;;;;;-13.69;63.10;96876.24;1786265;79;25825;-82
2021/12/27 06:21:00;;;;;;;281.13;96.22;;;;;;;-13.68;63.17;96878.38;1763157;80;27368;-82
2021/12/27 06:23:27;;;;;;;294.00;97.17;;;;;;;-13.66;63.20;96877.39;1763158;80;25932;-82
2021/12/27 06:25:54;;;;;;;286.20;102.07;;;;;;;-13.68;63.14;96874.03;1763222;80;25770;-82
2021/12/27 06:28:20;;;;;;;272.15;97.95;;;;;;;-13.72;63.12;96863.41;1763017;80;25694;-83
2021/12/27 06:30:47;;;;;;;271.52;97.75;;;;;;;-13.68;63.15;96871.89;1763300;80;26524;-82
2021/12/27 06:33:13;;;;;;;285.07;91.70;;;;;;;-13.71;63.14;96866.39;1763211;80;28490;-83
2021/12/27 06:35:40;;;;;;;262.55;92.37;;;;;;;-13.75;63.14;96871.80;1763114;80;25675;-82
2021/12/27 06:38:07;;;;;;;254.07;85.50;;;;;;;-13.77;63.06;96868.47;1763268;80;25749;-82
2021/12/27 06:40:33;;;;;;;238.55;80.47;;;;;;;-13.82;63.11;96873.88;1763362;80;25767;-82
2021/12/27 06:43:00;;;;;;;250.50;80.90;;;;;;;-13.85;63.15;96880.50;1763268;80;25790;-82
2021/12/27 06:45:27;;;;;;;237.48;79.92;;;;;;;-13.89;63.11;96881.59;1763144;80;28036;-82
2021/12/27 06:47:54;;;;;;;261.52;88.15;;;;;;;-13.90;63.27;96884.64;1763084;81;26338;-82
2021/12/27 06:50:23;;;;;;;260.52;92.82;;;;;;;-13.84;63.34;96880.89;1763140;81;25718;-82
2021/12/27 06:52:49;;;;;;;271.52;89.95;;;;;;;-13.85;63.38;96881.34;1763247;79;26559;-82
2021/12/27 06:55:16;;;;;;;266.08;89.40;;;;;;;-13.83;63.47;96873.49;1763231;80;25520;-82
2021/12/27 06:57:43;;;;;;;259.50;93.45;;;;;;;-13.80;63.48;96872.05;1762954;81;27420;-82
2021/12/27 07:00:13;;;;;;;250.32;83.10;;;;;;;-13.75;63.58;96871.34;1762812;81;25902;-83
2021/12/27 07:02:39;;;;;;;243.40;82.50;;;;;;;-13.68;63.54;96879.67;1763986;78;25764;-82
2021/12/27 07:05:06;;;;;;;317.32;110.48;;;;;;;-13.63;63.47;96881.11;1806628;78;25796;-83
2021/12/27 07:07:33;;;;;;;284.10;103.07;;;;;;;-13.58;63.57;96883.48;1781300;79;25306;-82
2021/12/27 07:10:00;;;;;;;253.70;90.25;;;;;;;-13.47;63.70;96877.75;1781330;79;27507;-82
2021/12/27 07:12:27;;;;;;;251.73;91.67;;;;;;;-13.39;63.85;96885.97;1781066;79;25674;-82
2021/12/27 07:14:53;;;;;;;244.62;90.17;;;;;;;-13.35;63.71;96878.41;1783680;79;25770;-82
2021/12/27 07:17:20;;;;;;;250.60;91.45;;;;;;;-13.29;63.77;96882.85;1794607;79;25824;-82
2021/12/27 07:19:47;;;;;;;241.50;93.25;;;;;;;-13.23;63.74;96872.12;1794683;79;25714;-82
2021/12/27 07:22:14;;;;;;;265.85;97.55;;;;;;;-13.21;63.73;96877.25;1763198;80;27217;-82
2021/12/27 07:24:41;;;;;;;273.23;99.30;;;;;;;-13.22;63.74;96866.48;1763078;80;25223;-81
2021/12/27 07:27:08;;;;;;;275.93;102.15;;;;;;;-13.23;63.67;96860.90;1784619;78;25746;-82
2021/12/27 07:29:35;;;;;;;277.05;101.40;;;;;;;-13.27;63.66;96856.78;1783853;78;26252;-82
2021/12/27 07:32:01;;;;;;;290.60;108.95;;;;;;;-13.31;63.78;96860.47;1774107;80;25815;-82
2021/12/27 07:34:28;;;;;;;310.32;113.85;;;;;;;-13.28;63.88;96857.72;1779199;79;27419;-81
2021/12/27 07:36:56;;;;;;;308.95;111.83;;;;;;;-13.15;64.14;96852.23;1803879;79;25235;-82
2021/12/27 07:39:25;;;;;;;289.85;109.17;;;;;;;-13.01;64.17;96852.78;1802552;79;25266;-81
2021/12/27 07:41:53;;;;;;;307.87;119.42;;;;;;;-12.91;64.18;96856.10;1801326;79;25843;-81
2021/12/27 07:44:19;;;;;;;303.65;114.17;;;;;;;-12.84;64.08;96857.47;1801352;78;25707;-82
2021/12/27 07:46:46;;;;;;;316.00;128.20;;;;;;;-12.81;64.10;96856.02;1805625;79;27451;-82
2021/12/27 07:49:15;;;;;;;317.73;123.40;;;;;;;-12.69;64.30;96858.87;1805671;78;25696;-82
2021/12/27 07:51:42;;;;;;;656.05;249.55;;;;;;;-12.56;64.34;96854.22;1798501;78;25741;-82
2021/12/27 07:54:09;;;;;;;580.42;209.83;;;;;;;-12.54;64.21;96847.61;1795271;78;26615;-82
2021/12/27 07:56:35;;;;;;;390.80;158.40;;;;;;;-12.57;64.10;96843.91;1793973;79;25277;-81
2021/12/27 07:59:04;;;;;;;339.77;143.10;;;;;;;-12.60;64.19;96833.20;1775979;79;27384;-82
2021/12/27 08:01:36;;;;;;;325.52;139.20;;;;;;;-12.57;64.27;96831.74;1799663;78;25744;-82
2021/12/27 08:04:05;;;;;;;322.90;134.25;;;;;;;-12.42;64.41;96833.47;1805648;79;26135;-81
2021/12/27 08:06:32;;;;;;;321.57;140.80;;;;;;;-12.28;64.44;96827.96;1802503;79;26547;-82
2021/12/27 08:08:59;;;;;;;332.23;140.37;;;;;;;-12.15;64.36;96816.78;1804997;78;26351;-82
2021/12/27 08:11:26;;;;;;;320.23;138.40;;;;;;;-12.03;64.38;96822.58;1796863;79;28220;-82
2021/12/27 08:13:54;;;;;;;325.07;138.95;;;;;;;-11.86;64.53;96812.52;1805558;78;25748;-82
2021/12/27 08:16:24;;;;;;;320.42;138.62;;;;;;;-11.68;64.61;96813.15;1769470;79;25686;-82
2021/12/27 08:18:50;;;;;;;366.95;160.30;;;;;;;-11.53;64.51;96812.25;1718756;82;25886;-81
2021/12/27 08:21:16;;;;;;;362.80;156.43;;;;;;;-11.49;64.33;96815.06;1713170;82;25789;-82
2021/12/27 08:23:43;;;;;;;382.95;164.37;;;;;;;-11.48;64.22;96811.53;1718937;83;27296;-81
2021/12/27 08:26:09;;;;;;;406.63;169.07;;;;;;;-11.40;64.35;96807.98;1739519;80;25723;-81
2021/12/27 08:28:36;;;;;;;441.02;179.23;;;;;;;-11.32;64.27;96810.13;1744708;81;25732;-81
2021/12/27 08:31:02;;;;;;;500.57;205.98;;;;;;;-11.32;64.18;96807.05;1694649;83;25735;-81
2021/12/27 08:33:29;;;;;;;482.75;205.98;;;;;;;-11.41;64.01;96805.01;1682962;83;25281;-81
2021/12/27 08:35:56;;;;;;;632.38;277.82;;;;;;;-11.41;64.16;96798.50;1689222;83;27512;-81
2021/12/27 08:38:23;;;;;;;516.10;220.45;;;;;;;-11.35;64.31;96797.30;1684276;83;25807;-82
2021/12/27 08:40:49;;;;;;;405.95;178.07;;;;;;;-11.34;64.29;96793.28;1707656;83;25441;-82
2021/12/27 08:43:16;;;;;;;424.27;174.42;;;;;;;-11.34;64.30;96794.58;1711511;82;25732;-81
2021/12/27 08:45:43;;;;;;;409.40;173.25;;;;;;;-11.19;64.49;96801.94;1711529;83;25808;-82
2021/12/27 08:48:09;;;;;;;396.70;159.22;;;;;;;-10.90;64.68;96809.28;1763506;79;27552;-81
2021/12/27 08:50:37;;;;;;;405.40;168.70;;;;;;;-10.64;64.69;96802.45;1703364;82;25722;-81
2021/12/27 08:53:06;;;;;;;376.70;156.20;;;;;;;-10.41;64.51;96806.20;1776045;79;25827;-82
2021/12/27 08:55:35;;;;;;;363.73;143.80;;;;;;;-10.46;64.05;96808.25;1783705;79;25706;-82
2021/12/27 08:58:05;;;;;;;356.10;143.65;;;;;;;-10.48;64.12;96800.98;1740891;81;25907;-82
2021/12/27 09:00:32;;;;;;;361.48;144.22;;;;;;;-10.53;64.03;96800.46;1702970;82;27584;-82
2021/12/27 09:02:59;;;;;;;317.10;129.65;;;;;;;-10.40;64.30;96792.23;1740949;79;25743;-82
2021/12/27 09:05:26;;;;;;;284.23;118.37;;;;;;;-10.28;64.33;96783.61;1772653;79;25641;-82
2021/12/27 09:07:53;;;;;;;249.95;102.90;;;;;;;-10.13;64.40;96786.47;1790511;79;26468;-81
2021/12/27 09:10:19;;;;;;;256.15;105.50;;;;;;;-9.99;64.39;96782.96;1791138;79;25682;-82
2021/12/27 09:12:46;;;;;;;223.70;92.92;;;;;;;-9.86;64.35;96788.58;1794445;79;27275;-82
2021/12/27 09:15:14;;;;;;;214.90;84.83;;;;;;;-9.73;64.48;96772.94;1794382;79;25235;-81
2021/12/27 09:17:41;;;;;;;180.72;73.57;;;;;;;-9.59;64.39;96778.55;1794488;79;25649;-81
2021/12/27 09:20:09;;;;;;;203.92;84.17;;;;;;;-9.49;64.17;96770.44;1794379;79;25753;-81
2021/12/27 09:22:36;;;;;;;211.47;87.05;;;;;;;-9.38;64.05;96781.00;1789106;79;25621;-82
2021/12/27 09:25:04;;;;;;;238.18;96.12;;;;;;;-9.36;63.91;96771.75;1763293;81;27288;-81
2021/12/27 09:27:30;;;;;;;273.60;105.30;;;;;;;-9.30;63.84;96770.88;1763132;80;25826;-81
2021/12/27 09:29:58;;;;;;;294.23;118.17;;;;;;;-9.28;63.99;96767.66;1766199;80;25768;-81
2021/12/27 09:32:24;;;;;;;241.80;96.92;;;;;;;-9.24;63.80;96765.21;1768643;80;25777;-82
2021/12/27 09:34:51;;;;;;;240.95;96.32;;;;;;;-9.23;63.91;96764.74;1768803;80;25747;-81
2021/12/27 09:37:18;;;;;;;234.50;92.67;;;;;;;-9.10;64.08;96753.33;1768670;80;28193;-81
2021/12/27 09:39:45;;;;;;;241.12;97.72;;;;;;;-8.95;63.98;96754.05;1768672;81;25975;-82
2021/12/27 09:42:11;;;;;;;263.80;105.30;;;;;;;-8.83;64.07;96742.72;1768734;80;25709;-81
2021/12/27 09:44:38;;;;;;;298.35;119.37;;;;;;;-8.71;64.06;96745.41;1768758;80;25836;-81
2021/12/27 09:47:04;;;;;;;273.80;114.47;;;;;;;-8.60;63.91;96729.30;1769874;79;25278;-81
2021/12/27 09:49:31;;;;;;;292.13;124.78;;;;;;;-8.56;63.90;96730.72;1792913;79;27379;-81
2021/12/27 09:52:00;;;;;;;305.25;125.18;;;;;;;-8.44;63.86;96724.60;1800236;79;25706;-81
2021/12/27 09:54:28;;;;;;;322.20;137.92;;;;;;;-8.32;63.84;96725.96;1800346;79;25720;-81
2021/12/27 09:56:58;;;;;;;318.80;136.72;;;;;;;-8.29;63.78;96718.70;1800359;79;25708;-81
2021/12/27 09:59:26;;;;;;;330.00;146.00;;;;;;;-8.12;63.90;96706.98;1798264;79;43599;-81
2021/12/27 10:01:53;;;;;;;318.05;135.70;;;;;;;-7.95;64.07;96703.92;1800090;79;28094;-81
2021/12/27 10:04:21;;;;;;;343.57;147.85;;;;;;;-7.82;64.08;96699.44;1799989;79;25837;-82
2021/12/27 10:06:48;;;;;;;332.00;139.82;;;;;;;-7.65;64.05;96697.70;1800360;79;25861;-82
2021/12/27 10:09:15;;;;;;;331.77;143.32;;;;;;;-7.56;63.84;96690.91;1775646;79;26274;-82
2021/12/27 10:11:46;;;;;;;323.50;138.65;;;;;;;-7.42;63.95;96689.84;1800458;79;25720;-81
2021/12/27 10:14:19;;;;;;;325.05;132.50;;;;;;;-7.29;63.75;96689.27;1800319;79;27347;-81
2021/12/27 10:16:56;;;;;;;302.48;126.42;;;;;;;-7.13;63.71;96683.19;1800011;79;26378;-82
2021/12/27 10:19:24;;;;;;;282.25;113.75;;;;;;;-6.96;63.67;96692.33;1798128;79;25431;-82
2021/12/27 10:21:53;;;;;;;308.50;124.72;;;;;;;-6.96;63.42;96693.64;1800337;79;25902;-81
2021/12/27 10:24:28;;;;;;;278.02;115.12;;;;;;;-7.08;63.46;96688.89;1800385;79;25790;-81
2021/12/27 10:26:59;;;;;;;288.48;117.05;;;;;;;-6.91;63.61;96688.88;1800316;79;28318;-81
2021/12/27 10:29:31;;;;;;;608.20;239.48;;;;;;;-6.68;63.50;96685.73;1798951;79;25856;-81
2021/12/27 10:32:06;;;;;;;487.10;192.05;;;;;;;-6.49;63.47;96683.76;1793980;79;26287;-81
2021/12/27 10:34:43;;;;;;;252.82;105.15;;;;;;;-6.38;63.29;96680.61;1790087;79;25764;-82
2021/12/27 10:37:24;;;;;;;241.10;100.05;;;;;;;-6.27;63.37;96677.94;1794757;79;26283;-81
2021/12/27 10:40:03;;;;;;;232.30;97.22;;;;;;;-6.19;63.09;96678.64;1791502;79;28334;-81
2021/12/27 10:42:43;;;;;;;200.07;79.47;;;;;;;-6.03;63.15;96680.82;1776276;79;25666;-81
2021/12/27 10:45:21;;;;;;;210.50;81.37;;;;;;;-5.94;62.65;96681.39;1766762;79;25644;-81
2021/12/27 10:47:54;;;;;;;212.82;83.67;;;;;;;-5.83;62.39;96686.55;1792988;79;25720;-81
2021/12/27 10:50:31;;;;;;;208.63;84.58;;;;;;;-5.77;62.42;96683.88;1794681;79;25740;-81
2021/12/27 10:53:14;;;;;;;214.40;85.83;;;;;;;-5.72;62.17;96678.60;1790222;79;28141;-82
2021/12/27 10:55:43;;;;;;;207.07;81.35;;;;;;;-5.68;62.10;96675.24;1794736;79;26371;-82
2021/12/27 10:58:20;;;;;;;198.85;81.95;;;;;;;-5.58;61.92;96671.70;1794750;79;25685;-81
2021/12/27 11:01:01;;;;;;;191.30;80.55;;;;;;;-5.59;61.64;96675.30;1794793;79;25686;-81
2021/12/27 11:03:37;;;;;;;176.35;72.95;;;;;;;-5.60;61.68;96674.94;1793460;79;26223;-82
2021/12/27 11:06:07;;;;;;;177.20;73.47;;;;;;;-5.36;62.11;96675.97;1794275;79;27526;-82